Time;durP1;ratioP1;P1;durP2;ratioP2;P2;SDS_P1;SDS_P2;PMS_P1;PMS_P2;Temp;Humidity;BMP_temperature;BMP_pressure;BME280_temperature;BME280_humidity;BME280_pressure;Samples;Min_cycle;Max_cycle;Signal;HPM_P1;HPM_P2
2024/01/16 00:01:18;;;;;;;43.35;18.45;;;;;;;-10.64;92.47;97735.91;10521679;28;20040;-66
2024/01/16 00:06:22;;;;;;;39.35;18.67;;;;;;;-10.59;92.41;97730.75;10517820;28;20420;-66
2024/01/16 00:11:24;;;;;;;40.40;16.60;;;;;;;-10.48;91.76;97718.66;10522752;28;20051;-65
2024/01/16 00:16:26;;;;;;;37.40;16.23;;;;;;;-10.51;91.56;97721.75;10523166;28;20412;-66
2024/01/16 00:21:29;;;;;;;31.42;13.57;;;;;;;-10.47;91.79;97728.22;10521961;28;20036;-66
2024/01/16 00:26:32;;;;;;;29.70;14.07;;;;;;;-10.45;92.20;97731.44;10525739;28;20036;-66
2024/01/16 00:31:35;;;;;;;27.45;11.45;;;;;;;-10.39;92.08;97728.75;10512897;28;20423;-66
2024/01/16 00:36:37;;;;;;;29.10;12.10;;;;;;;-10.38;92.48;97722.44;10515839;28;20039;-65
2024/01/16 00:41:40;;;;;;;29.08;10.82;;;;;;;-10.32;92.19;97730.53;10530770;28;20040;-67
2024/01/16 00:46:42;;;;;;;26.70;10.98;;;;;;;-10.33;92.85;97724.41;10529108;28;20047;-65
2024/01/16 00:51:44;;;;;;;27.45;11.30;;;;;;;-10.25;92.55;97724.13;10538026;28;20415;-66
2024/01/16 00:56:47;;;;;;;30.00;12.07;;;;;;;-10.31;93.56;97711.75;10523914;28;20500;-66
2024/01/16 01:01:51;;;;;;;26.17;11.25;;;;;;;-10.30;93.71;97728.47;10536856;28;20043;-66
2024/01/16 01:06:53;;;;;;;13.48;6.80;;;;;;;-10.24;93.60;97723.09;10517476;28;20142;-67
2024/01/16 01:11:56;;;;;;;21.70;10.68;;;;;;;-10.21;94.07;97712.06;10556513;28;20028;-67
2024/01/16 01:16:59;;;;;;;22.45;10.15;;;;;;;-10.16;93.62;97719.31;10510168;28;20036;-67
2024/01/16 01:22:03;;;;;;;28.25;10.70;;;;;;;-10.14;93.95;97718.06;10545147;28;20040;-67
2024/01/16 01:27:06;;;;;;;22.52;10.05;;;;;;;-10.14;93.57;97718.06;10539531;28;20043;-67
2024/01/16 01:32:10;;;;;;;20.40;8.55;;;;;;;-10.14;93.80;97720.72;10528946;28;20066;-66
2024/01/16 01:37:12;;;;;;;20.08;8.70;;;;;;;-10.10;94.41;97708.63;10547217;28;20039;-67
2024/01/16 01:42:19;;;;;;;23.08;9.30;;;;;;;-10.05;94.43;97719.41;10511958;28;20419;-68
2024/01/16 01:47:21;;;;;;;21.67;9.93;;;;;;;-10.01;94.71;97718.97;10524694;28;20488;-66
2024/01/16 01:52:24;;;;;;;12.35;6.13;;;;;;;-9.91;94.26;97712.09;10507952;28;20516;-66
2024/01/16 01:57:28;;;;;;;22.67;8.90;;;;;;;-9.90;94.56;97719.00;10519644;28;20032;-67
2024/01/16 02:02:34;;;;;;;19.48;8.15;;;;;;;-9.84;94.09;97717.31;10518941;28;20037;-67
2024/01/16 02:07:38;;;;;;;17.60;9.18;;;;;;;-9.82;94.77;97709.94;10523860;28;20040;-66
2024/01/16 02:12:40;;;;;;;20.88;8.95;;;;;;;-9.83;94.76;97713.63;10507893;28;20036;-67
2024/01/16 02:17:42;;;;;;;18.50;8.25;;;;;;;-9.81;94.82;97716.88;10561649;28;20515;-66
2024/01/16 02:22:48;;;;;;;17.67;8.05;;;;;;;-9.81;94.29;97703.63;10543959;28;20032;-66
2024/01/16 02:27:52;;;;;;;22.35;9.80;;;;;;;-9.79;94.33;97699.69;10534373;28;20051;-66
2024/01/16 02:32:57;;;;;;;16.05;7.70;;;;;;;-9.77;94.30;97702.94;10526755;28;20037;-66
2024/01/16 02:38:00;;;;;;;18.27;8.35;;;;;;;-9.75;94.71;97698.22;10525348;28;20602;-65
2024/01/16 02:43:03;;;;;;;18.33;9.32;;;;;;;-9.74;95.05;97694.53;10528001;28;20498;-66
2024/01/16 02:48:06;;;;;;;5.85;4.30;;;;;;;-9.69;94.56;97699.19;10510488;28;20048;-66
2024/01/16 02:53:08;;;;;;;17.05;8.25;;;;;;;-9.67;95.01;97707.72;10518683;28;20050;-66
2024/01/16 02:58:11;;;;;;;15.85;7.57;;;;;;;-9.66;95.03;97714.66;10565417;28;20036;-68
2024/01/16 03:03:14;;;;;;;19.30;8.95;;;;;;;-9.59;93.88;97710.06;10540732;28;20036;-68
2024/01/16 03:08:17;;;;;;;15.60;7.32;;;;;;;-9.60;93.81;97708.44;10528976;28;20510;-67
2024/01/16 03:13:19;;;;;;;14.60;7.65;;;;;;;-9.59;93.71;97714.56;10532839;28;20028;-68
2024/01/16 03:18:22;;;;;;;20.67;10.30;;;;;;;-9.58;93.71;97721.47;10508610;28;20040;-66
2024/01/16 03:23:24;;;;;;;19.95;9.30;;;;;;;-9.58;93.69;97714.34;10532557;28;20029;-67
2024/01/16 03:28:27;;;;;;;17.73;6.75;;;;;;;-9.56;94.20;97712.25;10526997;28;20035;-67
2024/01/16 03:33:29;;;;;;;19.33;8.57;;;;;;;-9.52;94.47;97715.28;10543418;28;20060;-68
2024/01/16 03:38:31;;;;;;;16.88;8.55;;;;;;;-9.50;94.09;97714.03;10544715;28;20044;-67
2024/01/16 03:43:35;;;;;;;18.75;9.50;;;;;;;-9.49;94.19;97720.97;10521419;28;20040;-68
2024/01/16 03:48:37;;;;;;;19.00;8.27;;;;;;;-9.45;94.18;97723.97;10504561;28;20405;-66
2024/01/16 03:53:48;;;;;;;6.93;2.72;;;;;;;-9.43;94.10;97712.09;10521366;28;20040;-66
2024/01/16 03:58:51;;;;;;;2.05;1.85;;;;;;;-9.44;94.47;97701.69;10529409;28;20051;-66
2024/01/16 04:03:53;;;;;;;7.18;3.08;;;;;;;-9.39;94.69;97703.66;10489014;28;20044;-66
2024/01/16 04:08:57;;;;;;;9.50;4.90;;;;;;;-9.37;94.49;97717.53;10533696;28;20036;-65
2024/01/16 04:14:00;;;;;;;3.60;2.05;;;;;;;-9.37;95.00;97707.75;10496907;28;20060;-66
2024/01/16 04:19:02;;;;;;;1.23;1.13;;;;;;;-9.33;95.12;97711.56;10529557;28;20036;-66
2024/01/16 04:24:05;;;;;;;7.28;1.35;;;;;;;-9.35;94.94;97707.50;10528720;28;20040;-65
2024/01/16 04:29:08;;;;;;;4.22;2.40;;;;;;;-9.34;94.48;97712.59;10529963;28;20456;-65
2024/01/16 04:34:10;;;;;;;4.28;2.10;;;;;;;-9.31;94.28;97712.13;10528916;28;20040;-66
2024/01/16 04:39:15;;;;;;;7.20;4.22;;;;;;;-9.35;94.94;97715.47;10508550;28;20044;-66
2024/01/16 04:44:18;;;;;;;1.42;1.33;;;;;;;-9.36;93.86;97711.22;10529768;28;20497;-66
2024/01/16 04:49:21;;;;;;;5.85;4.22;;;;;;;-9.36;93.80;97709.38;10528429;28;20049;-65
2024/01/16 04:54:23;;;;;;;8.40;4.13;;;;;;;-9.36;93.57;97719.97;10529421;28;20043;-65
2024/01/16 04:59:26;;;;;;;3.97;3.05;;;;;;;-9.36;93.52;97724.47;10528316;28;20538;-66
2024/01/16 05:04:29;;;;;;;6.15;3.95;;;;;;;-9.32;93.70;97737.06;10529144;28;20044;-65
2024/01/16 05:09:33;;;;;;;11.15;5.57;;;;;;;-9.31;93.35;97730.72;10525310;28;20055;-66
2024/01/16 05:14:35;;;;;;;10.25;3.00;;;;;;;-9.35;93.31;97742.03;10526442;28;20412;-66
2024/01/16 05:19:40;;;;;;;1.92;1.35;;;;;;;-9.33;93.28;97748.72;10490645;28;20095;-66
2024/01/16 05:24:43;;;;;;;10.05;4.40;;;;;;;-9.33;93.07;97748.72;10510016;28;20411;-67
2024/01/16 05:29:45;;;;;;;2.95;1.50;;;;;;;-9.29;94.02;97757.06;10528149;28;20040;-66
2024/01/16 05:34:48;;;;;;;13.95;5.95;;;;;;;-9.37;93.43;97755.53;10509178;28;20521;-66
2024/01/16 05:39:50;;;;;;;5.47;3.65;;;;;;;-9.32;93.46;97757.50;10509831;28;20040;-66
2024/01/16 05:44:54;;;;;;;12.25;4.80;;;;;;;-9.32;93.10;97757.50;10507735;28;20041;-65
2024/01/16 05:49:56;;;;;;;11.18;5.25;;;;;;;-9.28;92.91;97763.97;10508851;28;20059;-66
2024/01/16 05:55:04;;;;;;;11.57;5.25;;;;;;;-9.23;93.19;97761.44;10491872;28;20031;-65
2024/01/16 06:00:07;;;;;;;6.60;4.25;;;;;;;-9.20;92.73;97779.59;10527831;28;20067;-67
2024/01/16 06:05:09;;;;;;;8.82;4.88;;;;;;;-9.13;92.53;97772.34;10526837;28;20040;-66
2024/01/16 06:10:13;;;;;;;3.03;2.42;;;;;;;-9.13;92.33;97775.00;10526416;28;20051;-65
2024/01/16 06:15:16;;;;;;;6.13;3.97;;;;;;;-9.09;92.70;97772.72;10509510;28;20067;-66
2024/01/16 06:20:20;;;;;;;7.47;4.93;;;;;;;-9.15;91.82;97779.75;10524235;28;20033;-65
2024/01/16 06:25:23;;;;;;;8.20;4.10;;;;;;;-9.17;92.50;97792.44;10508753;28;20385;-66
2024/01/16 06:30:25;;;;;;;8.60;4.13;;;;;;;-9.23;92.48;97798.63;10526479;28;20421;-66
2024/01/16 06:35:28;;;;;;;8.60;4.28;;;;;;;-9.34;92.00;97802.06;10499539;28;20059;-67
2024/01/16 06:40:30;;;;;;;4.07;2.78;;;;;;;-9.54;91.66;97808.41;10523006;28;20043;-66
2024/01/16 06:45:33;;;;;;;7.07;3.75;;;;;;;-9.59;91.65;97815.41;10520177;28;20044;-66
2024/01/16 06:50:36;;;;;;;6.30;5.78;;;;;;;-9.72;91.07;97811.03;10524499;28;20056;-66
2024/01/16 06:55:38;;;;;;;6.70;3.83;;;;;;;-9.84;90.57;97826.09;10524311;28;20397;-65
2024/01/16 07:00:44;;;;;;;2.58;1.48;;;;;;;-10.00;90.05;97834.63;10490164;28;20036;-64
2024/01/16 07:05:47;;;;;;;4.93;3.72;;;;;;;-10.19;89.67;97833.75;10523117;28;20511;-66
2024/01/16 07:10:49;;;;;;;1.83;1.70;;;;;;;-10.34;89.45;97839.41;10518013;28;20036;-65
2024/01/16 07:15:51;;;;;;;5.25;2.88;;;;;;;-10.43;88.57;97838.88;10510350;28;20044;-66
2024/01/16 07:20:53;;;;;;;6.13;3.15;;;;;;;-10.53;89.25;97848.34;10464308;28;20041;-65
2024/01/16 07:25:56;;;;;;;8.52;4.47;;;;;;;-10.57;89.93;97855.91;10521138;28;20048;-65
2024/01/16 07:30:58;;;;;;;10.80;4.22;;;;;;;-10.71;89.46;97860.47;10528011;28;20044;-65
2024/01/16 07:36:01;;;;;;;5.80;3.75;;;;;;;-10.57;89.85;97865.69;10518661;28;20044;-67
2024/01/16 07:41:05;;;;;;;6.28;2.70;;;;;;;-10.54;90.10;97866.06;10499822;28;20075;-65
2024/01/16 07:46:07;;;;;;;1.48;1.38;;;;;;;-10.56;88.84;97872.63;10499255;28;20042;-65
2024/01/16 07:51:09;;;;;;;3.15;1.92;;;;;;;-10.57;89.55;97889.53;10506998;28;20053;-65
2024/01/16 07:56:12;;;;;;;7.25;4.05;;;;;;;-10.51;89.04;97884.19;10521222;28;20032;-66
2024/01/16 08:01:14;;;;;;;2.80;2.20;;;;;;;-10.58;88.64;97885.28;10522250;28;20036;-65
2024/01/16 08:06:16;;;;;;;3.88;2.15;;;;;;;-10.64;87.39;97892.22;10523657;28;20408;-65
2024/01/16 08:11:19;;;;;;;8.50;3.58;;;;;;;-10.67;86.93;97887.34;10523333;28;20036;-65
2024/01/16 08:16:22;;;;;;;12.98;2.05;;;;;;;-10.70;86.50;97888.59;10521283;28;20059;-65
2024/01/16 08:21:24;;;;;;;5.45;2.55;;;;;;;-10.79;86.26;97889.03;10511114;28;20032;-67
2024/01/16 08:26:27;;;;;;;7.50;2.78;;;;;;;-10.84;85.65;97900.28;10515817;28;20422;-65
2024/01/16 08:31:29;;;;;;;1.30;1.20;;;;;;;-10.90;86.05;97914.38;10523616;28;20045;-65
2024/01/16 08:36:31;;;;;;;2.70;1.70;;;;;;;-11.01;85.28;97902.59;10516752;28;20052;-65
2024/01/16 08:41:34;;;;;;;0.82;0.80;;;;;;;-10.87;84.89;97908.66;10517848;28;20037;-66
2024/01/16 08:46:36;;;;;;;8.40;4.63;;;;;;;-10.80;84.88;97916.56;10493166;28;20189;-65
2024/01/16 08:51:41;;;;;;;10.23;4.38;;;;;;;-10.79;84.68;97924.28;10523762;28;20052;-65
2024/01/16 08:56:43;;;;;;;8.40;4.22;;;;;;;-10.78;85.04;97946.28;10528829;28;20028;-66
2024/01/16 09:01:45;;;;;;;4.72;3.95;;;;;;;-10.85;83.88;97938.38;10508412;28;20048;-66
2024/01/16 09:06:47;;;;;;;2.67;2.33;;;;;;;-10.67;84.38;97943.78;10524637;28;20043;-66
2024/01/16 09:11:50;;;;;;;8.60;4.43;;;;;;;-10.60;84.85;97940.28;10526230;28;20043;-66
2024/01/16 09:16:53;;;;;;;5.63;3.22;;;;;;;-10.38;85.13;97941.59;10526394;28;20040;-66
2024/01/16 09:21:56;;;;;;;9.77;4.70;;;;;;;-10.41;84.73;97950.81;10523922;28;20456;-64
2024/01/16 09:26:58;;;;;;;9.88;4.32;;;;;;;-10.42;84.04;97958.94;10526196;28;20510;-65
2024/01/16 09:32:01;;;;;;;3.33;2.65;;;;;;;-10.57;83.36;97969.03;10499633;28;20041;-66
2024/01/16 09:37:03;;;;;;;6.22;3.25;;;;;;;-10.62;83.27;97968.84;10519954;28;20032;-65
2024/01/16 09:42:06;;;;;;;7.15;4.05;;;;;;;-10.41;83.41;97976.50;10523750;28;20561;-66
2024/01/16 09:47:08;;;;;;;6.00;3.05;;;;;;;-10.53;84.17;97975.53;10527292;28;20039;-66
2024/01/16 09:52:10;;;;;;;10.35;4.80;;;;;;;-10.66;83.69;97979.03;10523295;28;20036;-65
2024/01/16 09:57:14;;;;;;;8.20;4.32;;;;;;;-10.76;83.05;97984.81;10495191;28;20440;-65
2024/01/16 10:02:16;;;;;;;5.22;3.83;;;;;;;-10.86;83.54;97988.91;10488471;28;20043;-66
2024/01/16 10:07:19;;;;;;;8.43;4.38;;;;;;;-10.91;83.08;97992.19;10483850;28;20039;-65
2024/01/16 10:12:21;;;;;;;7.40;4.13;;;;;;;-10.89;84.00;97999.94;10480472;28;20440;-66
2024/01/16 10:17:42;;;;;;;11.10;3.75;;;;;;;-10.71;83.92;98011.47;10501574;28;20036;-67
2024/01/16 10:22:54;;;;;;;7.72;3.65;;;;;;;-10.63;84.20;98010.41;10515847;28;20040;-66
2024/01/16 10:28:04;;;;;;;2.75;2.15;;;;;;;-10.87;83.14;98022.53;10517692;28;20037;-66
2024/01/16 10:33:14;;;;;;;8.07;3.83;;;;;;;-11.05;83.54;98028.47;10515561;28;20032;-65
2024/01/16 10:38:22;;;;;;;5.13;3.13;;;;;;;-11.11;83.59;98039.88;10516173;28;20045;-63
2024/01/16 10:43:24;;;;;;;8.45;4.55;;;;;;;-11.09;84.22;98043.16;10528536;28;20040;-65
2024/01/16 10:48:26;;;;;;;12.65;4.00;;;;;;;-11.19;83.64;98058.66;10527233;28;20060;-64
2024/01/16 10:53:33;;;;;;;7.47;4.10;;;;;;;-11.41;83.36;98062.53;10504661;28;20045;-64
2024/01/16 10:58:40;;;;;;;5.75;4.03;;;;;;;-11.64;83.24;98076.97;10516030;28;20036;-65
2024/01/16 11:03:50;;;;;;;8.68;4.72;;;;;;;-11.61;83.73;98066.00;10515227;28;20037;-64
2024/01/16 11:08:52;;;;;;;10.38;3.25;;;;;;;-11.64;83.72;98070.84;10519247;28;20051;-63
2024/01/16 11:13:55;;;;;;;6.07;3.55;;;;;;;-11.74;83.29;98075.75;10515058;28;20047;-63
2024/01/16 11:18:58;;;;;;;6.68;3.97;;;;;;;-11.61;83.24;98081.06;10512437;28;20040;-63
2024/01/16 11:24:00;;;;;;;6.15;3.25;;;;;;;-11.70;83.17;98084.91;10519769;28;20531;-63
2024/01/16 11:29:28;;;;;;;6.75;3.83;;;;;;;-11.70;82.68;98095.47;10520375;28;20572;-63
2024/01/16 11:34:42;;;;;;;6.22;3.65;;;;;;;-11.93;82.13;98104.63;10516129;28;20040;-66
2024/01/16 11:39:44;;;;;;;8.30;5.03;;;;;;;-11.91;83.05;98107.88;10519048;28;20036;-65
2024/01/16 11:44:53;;;;;;;9.75;4.22;;;;;;;-12.00;82.90;98114.34;10518843;28;20037;-65
2024/01/16 11:50:12;;;;;;;7.65;4.78;;;;;;;-11.97;82.27;98123.75;10518303;28;20052;-66
2024/01/16 11:55:33;;;;;;;;;;;;;;;-11.92;82.93;98132.69;10514419;28;20523;-65
2024/01/16 12:00:36;;;;;;;7.82;4.45;;;;;;;-12.09;82.27;98138.53;10515311;28;19921;-63
2024/01/16 12:05:39;;;;;;;9.93;3.92;;;;;;;-12.27;82.56;98145.19;10498747;28;20478;-65
2024/01/16 12:10:50;;;;;;;10.75;4.35;;;;;;;-12.36;82.54;98145.53;10518593;28;20416;-66
2024/01/16 12:16:03;;;;;;;5.35;3.25;;;;;;;-12.30;83.43;98150.06;10512058;28;20037;-63
2024/01/16 12:21:10;;;;;;;8.45;4.05;;;;;;;-12.37;83.16;98157.09;10523753;28;20063;-62
2024/01/16 12:26:20;;;;;;;4.15;3.08;;;;;;;-12.26;83.22;98170.59;10514382;28;20033;-64
2024/01/16 12:31:24;;;;;;;5.45;3.92;;;;;;;-12.40;83.21;98176.00;10521269;28;20037;-64
2024/01/16 12:36:26;;;;;;;8.63;3.15;;;;;;;-12.56;82.37;98182.41;10518368;28;20039;-65
2024/01/16 12:41:39;;;;;;;6.85;3.28;;;;;;;-12.59;82.33;98193.38;10544471;28;20044;-65
2024/01/16 12:46:41;;;;;;;7.28;3.40;;;;;;;-12.58;82.78;98201.09;10525380;28;20043;-64
2024/01/16 12:51:43;;;;;;;7.30;3.60;;;;;;;-12.55;83.04;98202.53;10522757;28;20055;-65
2024/01/16 12:56:48;;;;;;;7.30;3.42;;;;;;;-12.67;84.11;98218.09;10528652;28;20028;-65
2024/01/16 13:01:51;;;;;;;9.25;4.05;;;;;;;-12.71;83.80;98227.41;10533874;28;20400;-65
2024/01/16 13:07:03;;;;;;;5.40;3.60;;;;;;;-12.67;83.90;98236.56;10530562;28;20540;-65
2024/01/16 13:12:05;;;;;;;8.30;3.75;;;;;;;-12.63;83.34;98240.47;10536935;28;20037;-64
2024/01/16 13:17:10;;;;;;;6.15;2.63;;;;;;;-12.99;83.10;98248.53;10513131;28;20051;-65
2024/01/16 13:22:12;;;;;;;5.40;3.25;;;;;;;-13.09;83.49;98251.47;10528730;28;20040;-64
2024/01/16 13:27:14;;;;;;;8.32;4.32;;;;;;;-13.19;83.10;98245.75;10529224;28;20041;-65
2024/01/16 13:32:16;;;;;;;3.67;2.60;;;;;;;-13.18;83.75;98259.75;10530292;28;20428;-65
2024/01/16 13:37:22;;;;;;;4.43;2.55;;;;;;;-13.14;83.67;98264.41;10532710;28;20047;-66
2024/01/16 13:42:25;;;;;;;6.97;3.28;;;;;;;-13.35;83.78;98267.09;10529149;28;20040;-65
2024/01/16 13:47:27;;;;;;;5.78;3.28;;;;;;;-13.34;83.48;98278.44;10530346;28;20044;-65
2024/01/16 13:52:29;;;;;;;10.10;5.95;;;;;;;-13.32;84.14;98281.72;10534560;28;20044;-66
2024/01/16 13:57:34;;;;;;;11.80;6.10;;;;;;;-13.38;83.47;98287.72;10527599;28;20147;-66
2024/01/16 14:02:38;;;;;;;13.38;6.53;;;;;;;-13.43;84.17;98289.09;10531614;28;20546;-66
2024/01/16 14:07:41;;;;;;;12.38;6.90;;;;;;;-13.34;83.83;98302.19;10529453;28;20040;-66
2024/01/16 14:12:45;;;;;;;11.23;6.13;;;;;;;-13.38;83.73;98307.00;10527955;28;20036;-66
2024/01/16 14:17:52;;;;;;;11.48;6.97;;;;;;;-13.28;84.08;98314.63;10520922;28;20037;-66
2024/01/16 14:22:59;;;;;;;12.85;6.13;;;;;;;-13.30;84.00;98312.19;10525746;28;20040;-66
2024/01/16 14:28:03;;;;;;;10.27;5.97;;;;;;;-13.45;83.62;98319.31;10519759;28;20044;-67
2024/01/16 14:33:08;;;;;;;11.23;5.60;;;;;;;-13.69;83.43;98332.81;10544811;28;20036;-66
2024/01/16 14:38:10;;;;;;;9.55;5.30;;;;;;;-13.75;82.84;98347.53;10513033;28;20040;-66
2024/01/16 14:43:14;;;;;;;16.60;5.95;;;;;;;-13.85;82.08;98349.63;10520696;28;20032;-66
2024/01/16 14:48:17;;;;;;;10.32;5.18;;;;;;;-13.84;82.96;98351.28;10536390;28;20056;-66
2024/01/16 14:53:19;;;;;;;11.65;5.53;;;;;;;-13.74;82.57;98363.16;10522843;28;20519;-66
2024/01/16 14:58:23;;;;;;;11.77;6.05;;;;;;;-13.85;82.88;98379.44;10524808;28;20043;-66
2024/01/16 15:03:25;;;;;;;9.05;4.90;;;;;;;-13.99;82.52;98385.53;10516674;28;20040;-66
2024/01/16 15:08:32;;;;;;;9.80;4.47;;;;;;;-14.37;81.78;98396.09;10536365;28;20039;-66
2024/01/16 15:13:37;;;;;;;;;;;;;;;-14.31;82.07;98416.44;10525876;28;20040;-68
2024/01/16 15:18:42;;;;;;;11.18;6.05;;;;;;;-14.35;81.97;98417.78;10528439;28;19931;-68
2024/01/16 15:23:45;;;;;;;11.10;6.03;;;;;;;-14.32;81.74;98433.22;10524394;28;20032;-66
2024/01/16 15:28:49;;;;;;;12.13;5.95;;;;;;;-14.30;82.65;98435.69;10522020;28;20048;-66
2024/01/16 15:33:52;;;;;;;11.35;5.75;;;;;;;-14.37;81.86;98448.75;10517677;28;20062;-66
2024/01/16 15:38:54;;;;;;;9.43;5.18;;;;;;;-14.43;81.85;98443.38;10523612;28;20043;-66
2024/01/16 15:43:56;;;;;;;9.48;5.57;;;;;;;-14.20;81.73;98440.72;10505156;28;20052;-66
2024/01/16 15:49:05;;;;;;;10.27;5.65;;;;;;;-14.64;81.79;98455.38;10528056;28;20441;-68
2024/01/16 15:54:11;;;;;;;10.18;5.70;;;;;;;-14.63;82.64;98467.53;10526078;28;20127;-68
2024/01/16 15:59:13;;;;;;;13.07;5.75;;;;;;;-14.63;82.57;98464.09;10528836;28;20043;-67
2024/01/16 16:04:17;;;;;;;10.48;6.15;;;;;;;-14.74;81.82;98477.66;10513717;28;20044;-68
2024/01/16 16:09:20;;;;;;;9.07;5.65;;;;;;;-14.85;81.89;98483.31;10542247;28;20032;-66
2024/01/16 16:14:23;;;;;;;11.25;6.00;;;;;;;-15.08;81.20;98489.34;10521555;28;20037;-65
2024/01/16 16:19:26;;;;;;;13.80;6.82;;;;;;;-15.04;81.56;98503.78;10528932;28;20041;-65
2024/01/16 16:24:31;;;;;;;9.95;5.68;;;;;;;-15.13;81.53;98504.81;10545122;28;20036;-68
2024/01/16 16:29:36;;;;;;;11.90;6.38;;;;;;;-14.80;81.13;98508.13;10507339;28;20048;-64
2024/01/16 16:34:39;;;;;;;10.88;6.18;;;;;;;-14.95;81.70;98508.00;10517811;28;20574;-66
2024/01/16 16:39:43;;;;;;;9.65;5.22;;;;;;;-15.11;81.78;98510.72;10506464;28;20629;-67
2024/01/16 16:44:46;;;;;;;13.05;5.80;;;;;;;-15.32;81.70;98519.16;10531542;28;20033;-67
2024/01/16 16:49:49;;;;;;;10.93;5.10;;;;;;;-15.45;81.41;98523.31;10532017;28;20419;-68
2024/01/16 16:54:51;;;;;;;8.02;5.35;;;;;;;-15.49;81.47;98529.91;10545465;28;20530;-68
2024/01/16 16:59:54;;;;;;;9.48;5.82;;;;;;;-15.54;81.20;98536.47;10522329;28;20437;-68
2024/01/16 17:04:58;;;;;;;9.77;4.97;;;;;;;-15.63;81.96;98557.69;10520349;28;20032;-67
2024/01/16 17:10:00;;;;;;;12.27;5.47;;;;;;;-15.65;81.56;98564.94;10525400;28;20036;-68
2024/01/16 17:15:04;;;;;;;7.55;5.05;;;;;;;-15.65;81.27;98560.50;10527837;28;20043;-67
2024/01/16 17:20:14;;;;;;;13.88;5.70;;;;;;;-15.67;81.44;98565.09;10525213;28;20048;-66
2024/01/16 17:25:16;;;;;;;10.38;5.28;;;;;;;-15.68;81.55;98575.78;10528416;28;20417;-68
2024/01/16 17:30:20;;;;;;;9.27;5.07;;;;;;;-15.79;80.79;98571.69;10504713;28;20051;-67
2024/01/16 17:35:23;;;;;;;8.07;4.07;;;;;;;-15.90;80.66;98587.78;10532543;28;20055;-66
2024/01/16 17:40:26;;;;;;;10.18;4.60;;;;;;;-15.99;80.78;98594.00;10525404;28;20043;-67
2024/01/16 17:45:28;;;;;;;6.45;3.10;;;;;;;-15.98;81.28;98600.88;10548468;28;20043;-66
2024/01/16 17:50:31;;;;;;;9.10;3.50;;;;;;;-16.06;80.91;98606.16;10554551;28;20138;-66
2024/01/16 17:55:34;;;;;;;4.63;3.08;;;;;;;-16.07;80.18;98612.38;10521255;28;20036;-65
2024/01/16 18:00:36;;;;;;;9.25;3.60;;;;;;;-16.15;80.05;98618.44;10527985;28;20078;-65
2024/01/16 18:05:39;;;;;;;8.43;3.88;;;;;;;-16.10;80.46;98625.84;10543668;28;20036;-65
2024/01/16 18:10:41;;;;;;;5.93;3.20;;;;;;;-16.09;80.67;98635.38;10511716;28;20566;-66
2024/01/16 18:15:44;;;;;;;6.43;3.58;;;;;;;-16.05;80.23;98636.69;10513755;28;20032;-66
2024/01/16 18:20:47;;;;;;;5.85;2.90;;;;;;;-16.17;80.15;98647.47;10506350;28;20040;-65
2024/01/16 18:25:50;;;;;;;6.82;3.10;;;;;;;-16.19;80.74;98659.94;10504022;28;20060;-66
2024/01/16 18:30:53;;;;;;;5.22;2.53;;;;;;;-16.08;81.07;98673.78;10505677;28;20037;-65
2024/01/16 18:35:59;;;;;;;13.90;4.90;;;;;;;-16.19;80.29;98682.75;10518506;28;20389;-66
2024/01/16 18:41:03;;;;;;;4.22;2.72;;;;;;;-16.26;79.75;98687.00;10520178;28;20044;-67
2024/01/16 18:46:09;;;;;;;7.68;3.67;;;;;;;-16.29;80.63;98703.09;10518739;28;20039;-67
2024/01/16 18:51:13;;;;;;;6.30;3.20;;;;;;;-16.23;80.07;98710.31;10510005;28;20059;-69
2024/01/16 18:56:16;;;;;;;7.40;3.88;;;;;;;-16.30;80.15;98733.78;10507803;28;20125;-68
2024/01/16 19:01:19;;;;;;;6.63;3.80;;;;;;;-16.25;80.60;98741.16;10512849;28;20032;-69
2024/01/16 19:06:24;;;;;;;7.50;3.58;;;;;;;-16.28;79.82;98763.31;10514651;28;20045;-70
2024/01/16 19:11:27;;;;;;;5.85;2.85;;;;;;;-16.47;80.04;98756.50;10500547;28;20040;-68
2024/01/16 19:16:30;;;;;;;6.50;3.25;;;;;;;-16.29;80.41;98769.53;10504593;28;20037;-68
2024/01/16 19:21:37;;;;;;;6.95;3.40;;;;;;;-16.38;79.75;98769.66;10519045;28;20048;-68
2024/01/16 19:26:43;;;;;;;4.47;2.17;;;;;;;-16.29;79.48;98780.06;10524635;28;20119;-70
2024/01/16 19:31:53;;;;;;;6.80;3.17;;;;;;;-16.31;79.34;98799.53;10507556;28;20035;-68
2024/01/16 19:36:55;;;;;;;6.68;3.40;;;;;;;-16.33;80.36;98799.69;10520205;28;20457;-67
2024/01/16 19:42:01;;;;;;;7.20;3.40;;;;;;;-16.42;79.95;98808.50;10500975;28;20033;-69
2024/01/16 19:47:04;;;;;;;6.63;2.78;;;;;;;-16.37;79.97;98810.66;10529417;28;20093;-69
2024/01/16 19:52:09;;;;;;;4.05;2.45;;;;;;;-16.46;80.17;98830.81;10514073;28;20060;-69
2024/01/16 19:57:12;;;;;;;4.97;3.50;;;;;;;-16.41;80.73;98843.47;10506517;28;20033;-69
2024/01/16 20:02:14;;;;;;;8.45;2.72;;;;;;;-16.41;79.99;98846.91;10522225;28;20045;-69
2024/01/16 20:07:17;;;;;;;6.35;2.95;;;;;;;-16.54;80.57;98849.94;10515488;28;20032;-69
2024/01/16 20:12:21;;;;;;;5.00;2.00;;;;;;;-16.46;80.84;98854.44;10516327;28;20154;-68
2024/01/16 20:17:26;;;;;;;7.88;3.70;;;;;;;-16.54;81.38;98863.06;10557365;28;20028;-68
2024/01/16 20:22:29;;;;;;;6.35;3.47;;;;;;;-16.64;81.02;98867.59;10513862;28;20048;-69
2024/01/16 20:27:32;;;;;;;6.03;2.83;;;;;;;-16.74;81.50;98876.53;10529588;28;20469;-69
2024/01/16 20:32:40;;;;;;;5.22;2.83;;;;;;;-16.69;80.64;98876.91;10500371;28;20047;-69
2024/01/16 20:37:43;;;;;;;4.70;2.90;;;;;;;-16.78;80.75;98882.09;10527628;28;20036;-70
2024/01/16 20:42:47;;;;;;;6.85;3.55;;;;;;;-16.77;80.90;98889.00;10533109;28;20060;-68
2024/01/16 20:47:50;;;;;;;8.38;3.10;;;;;;;-16.80;80.89;98901.59;10519929;28;20055;-69
2024/01/16 20:52:54;;;;;;;5.55;3.30;;;;;;;-16.85;80.48;98906.44;10541877;28;20035;-69
2024/01/16 20:57:58;;;;;;;4.80;2.45;;;;;;;-16.90;80.54;98914.75;10575531;28;20036;-68
2024/01/16 21:03:03;;;;;;;7.78;3.38;;;;;;;-16.94;80.29;98933.56;10531189;28;20037;-68
2024/01/16 21:08:06;;;;;;;3.65;2.40;;;;;;;-16.96;80.35;98946.84;10504396;28;20033;-68
2024/01/16 21:13:09;;;;;;;6.53;2.90;;;;;;;-17.01;79.96;98953.47;10495860;28;20506;-68
2024/01/16 21:18:12;;;;;;;6.82;3.00;;;;;;;-16.85;80.38;98964.97;10512988;28;20044;-68
2024/01/16 21:23:15;;;;;;;9.38;3.67;;;;;;;-16.95;79.88;98968.66;10526446;28;20055;-68
2024/01/16 21:28:17;;;;;;;6.03;3.22;;;;;;;-17.00;79.32;98970.91;10506516;28;20044;-68
2024/01/16 21:33:20;;;;;;;4.78;2.78;;;;;;;-17.01;79.84;98987.56;10525525;28;20040;-67
2024/01/16 21:38:22;;;;;;;9.10;3.55;;;;;;;-17.04;79.63;98986.06;10505416;28;20408;-67
2024/01/16 21:43:24;;;;;;;6.28;1.30;;;;;;;-17.15;79.22;98989.75;10502065;28;20401;-66
2024/01/16 21:48:28;;;;;;;7.13;2.90;;;;;;;-17.18;79.55;99007.53;10529703;28;20048;-65
2024/01/16 21:53:30;;;;;;;7.95;3.53;;;;;;;-17.28;79.72;99009.38;10569376;28;20043;-65
2024/01/16 21:58:32;;;;;;;6.35;1.63;;;;;;;-17.28;79.73;99015.47;10527568;28;20047;-67
2024/01/16 22:03:35;;;;;;;4.95;2.80;;;;;;;-17.28;79.74;99019.88;10526837;28;20055;-67
2024/01/16 22:08:37;;;;;;;5.35;3.28;;;;;;;-17.39;79.49;99023.50;10510130;28;20048;-67
2024/01/16 22:13:39;;;;;;;6.95;3.33;;;;;;;-17.45;79.61;99034.56;10548984;28;20040;-67
2024/01/16 22:18:42;;;;;;;4.05;2.35;;;;;;;-17.57;79.13;99044.38;10537739;28;20044;-66
2024/01/16 22:23:46;;;;;;;5.38;2.83;;;;;;;-17.54;78.96;99056.34;10525880;28;20041;-66
2024/01/16 22:28:49;;;;;;;4.30;2.40;;;;;;;-17.59;79.74;99048.94;10525893;28;20418;-66
2024/01/16 22:33:51;;;;;;;4.82;2.47;;;;;;;-17.65;79.57;99053.91;10525687;28;20416;-66
2024/01/16 22:38:54;;;;;;;3.97;2.80;;;;;;;-17.65;79.41;99074.88;10525921;28;20040;-66
2024/01/16 22:43:58;;;;;;;9.15;3.13;;;;;;;-17.67;79.69;99072.41;10524902;28;20055;-66
2024/01/16 22:49:00;;;;;;;6.63;3.22;;;;;;;-17.71;79.13;99089.38;10526042;28;20565;-66
2024/01/16 22:54:06;;;;;;;4.40;2.38;;;;;;;-17.80;79.25;99092.84;10524499;28;20040;-66
2024/01/16 22:59:09;;;;;;;5.85;2.85;;;;;;;-17.83;79.64;99108.84;10501450;28;20033;-66
2024/01/16 23:04:11;;;;;;;13.27;5.13;;;;;;;-17.90;79.28;99123.44;10533965;28;20052;-66
2024/01/16 23:09:14;;;;;;;12.77;5.45;;;;;;;-17.90;79.84;99139.97;10499947;28;20037;-68
2024/01/16 23:14:23;;;;;;;9.45;4.70;;;;;;;-17.93;79.23;99144.66;10517279;28;20051;-67